Time;durP1;ratioP1;P1;durP2;ratioP2;P2;SDS_P1;SDS_P2;PMS_P1;PMS_P2;Temp;Humidity;BMP_temperature;BMP_pressure;BME280_temperature;BME280_humidity;BME280_pressure;Samples;Min_cycle;Max_cycle;Signal;HPM_P1;HPM_P2
2023/12/21 00:01:40;;;;;;;15.32;2.58;;;9.60;99.90;;;;;;5135042;27;20532;-73
2023/12/21 00:04:06;;;;;;;15.25;2.95;;;9.50;99.90;;;;;;5095674;28;20441;-73
2023/12/21 00:06:32;;;;;;;20.70;3.47;;;9.40;99.90;;;;;;5093823;28;20051;-74
2023/12/21 00:08:58;;;;;;;17.60;2.85;;;9.40;99.90;;;;;;5112056;28;20039;-73
2023/12/21 00:11:24;;;;;;;17.85;4.18;;;9.50;99.90;;;;;;5114780;28;20036;-73
2023/12/21 00:13:50;;;;;;;14.68;3.47;;;9.40;99.90;;;;;;5112195;28;20032;-73
2023/12/21 00:16:16;;;;;;;17.63;3.22;;;9.40;99.90;;;;;;5108401;28;20046;-74
2023/12/21 00:18:42;;;;;;;16.20;3.30;;;9.50;99.90;;;;;;5109541;28;20092;-74
2023/12/21 00:21:08;;;;;;;18.60;2.80;;;9.40;99.90;;;;;;5101498;28;20065;-74
2023/12/21 00:23:34;;;;;;;17.70;3.47;;;9.40;99.90;;;;;;5096090;28;20044;-73
2023/12/21 00:26:00;;;;;;;;;;;9.60;99.90;;;;;;5109097;28;20047;-73
2023/12/21 00:28:25;;;;;;;21.67;3.55;;;9.60;99.90;;;;;;5125533;27;19919;-73
2023/12/21 00:30:51;;;;;;;16.58;3.08;;;9.80;99.90;;;;;;5112301;27;20047;-73
2023/12/21 00:33:17;;;;;;;16.58;3.17;;;9.80;99.90;;;;;;5112852;27;20077;-73
2023/12/21 00:35:42;;;;;;;14.10;3.40;;;9.80;99.90;;;;;;5101144;27;20039;-73
2023/12/21 00:38:08;;;;;;;17.90;3.13;;;9.70;99.90;;;;;;5112016;27;20070;-74
2023/12/21 00:40:34;;;;;;;18.13;2.95;;;9.80;99.90;;;;;;5095529;27;20028;-74
2023/12/21 00:43:00;;;;;;;13.60;2.90;;;9.80;99.90;;;;;;5121878;27;20062;-74
2023/12/21 00:45:26;;;;;;;16.85;3.45;;;9.80;99.90;;;;;;5095002;27;20499;-73
2023/12/21 00:47:52;;;;;;;15.02;2.90;;;9.90;99.90;;;;;;5118744;27;20092;-74
2023/12/21 00:50:18;;;;;;;18.38;3.03;;;9.70;99.90;;;;;;5121579;27;20114;-74
2023/12/21 00:52:44;;;;;;;11.23;3.58;;;9.90;99.90;;;;;;5113951;27;20036;-73
2023/12/21 00:55:10;;;;;;;17.55;2.90;;;9.80;99.90;;;;;;5116055;27;20062;-73
2023/12/21 00:57:35;;;;;;;15.23;3.08;;;9.80;99.90;;;;;;5098017;27;20062;-74
2023/12/21 01:00:02;;;;;;;15.40;3.22;;;9.80;99.90;;;;;;5115497;27;20118;-73
2023/12/21 01:02:27;;;;;;;14.93;2.85;;;9.90;99.90;;;;;;5120979;27;20101;-73
2023/12/21 01:04:53;;;;;;;16.90;3.50;;;9.70;99.90;;;;;;5113130;27;20048;-74
2023/12/21 01:07:19;;;;;;;22.40;3.53;;;9.70;99.90;;;;;;5117046;27;20118;-73
2023/12/21 01:09:45;;;;;;;17.08;3.28;;;9.80;99.90;;;;;;5128234;27;20119;-74
2023/12/21 01:12:11;;;;;;;18.20;2.90;;;9.80;99.90;;;;;;5082852;27;20040;-74
2023/12/21 01:14:37;;;;;;;14.68;3.20;;;9.70;99.90;;;;;;5109712;27;20100;-73
2023/12/21 01:17:02;;;;;;;18.52;3.33;;;9.80;99.90;;;;;;5116834;27;20112;-74
2023/12/21 01:19:28;;;;;;;14.10;3.10;;;9.80;99.90;;;;;;5117494;27;20130;-74
2023/12/21 01:21:54;;;;;;;18.55;3.50;;;9.80;99.90;;;;;;5104300;27;20455;-74
2023/12/21 01:24:19;;;;;;;16.40;2.97;;;9.70;99.90;;;;;;5120695;27;20035;-74
2023/12/21 01:26:45;;;;;;;13.68;3.00;;;9.60;99.90;;;;;;5116322;27;20043;-73
2023/12/21 01:29:10;;;;;;;12.80;2.85;;;9.70;99.90;;;;;;5117769;27;20036;-74
2023/12/21 01:31:36;;;;;;;17.55;3.03;;;9.60;99.90;;;;;;5118219;27;20035;-74
2023/12/21 01:34:05;;;;;;;19.20;3.25;;;9.60;99.90;;;;;;5109801;27;20121;-73
2023/12/21 01:36:30;;;;;;;15.23;3.22;;;9.80;99.90;;;;;;5120965;27;20050;-74
2023/12/21 01:38:56;;;;;;;14.63;2.72;;;9.50;99.90;;;;;;5095879;28;20047;-73
2023/12/21 01:41:23;;;;;;;14.63;3.80;;;9.50;99.90;;;;;;5111354;27;20051;-73
2023/12/21 01:43:49;;;;;;;21.33;3.53;;;9.50;99.90;;;;;;5125252;27;20122;-74
2023/12/21 01:46:14;;;;;;;11.95;3.08;;;9.40;99.90;;;;;;5115657;27;20521;-73
2023/12/21 01:48:42;;;;;;;14.90;2.75;;;9.50;99.90;;;;;;5126075;27;20122;-73
2023/12/21 01:51:09;;;;;;;15.48;3.08;;;9.40;99.90;;;;;;5127601;27;20264;-73
2023/12/21 01:53:36;;;;;;;17.35;3.05;;;9.40;99.90;;;;;;5095537;27;20047;-73
2023/12/21 01:56:03;;;;;;;14.57;2.67;;;9.40;99.90;;;;;;5113763;27;20040;-73
2023/12/21 01:58:31;;;;;;;17.27;3.30;;;9.60;99.90;;;;;;5116980;27;20043;-73
2023/12/21 02:00:58;;;;;;;14.30;2.80;;;9.50;99.90;;;;;;5119970;27;20051;-73
2023/12/21 02:03:28;;;;;;;20.38;3.40;;;9.60;99.90;;;;;;5104361;27;20035;-73
2023/12/21 02:05:53;;;;;;;17.17;3.17;;;9.40;99.90;;;;;;5125825;27;20096;-73
2023/12/21 02:08:20;;;;;;;14.13;2.90;;;9.60;99.90;;;;;;5129644;27;20051;-73
2023/12/21 02:10:46;;;;;;;;;;;9.30;99.90;;;;;;5116686;27;20043;-74
2023/12/21 02:13:12;;;;;;;16.80;3.03;;;9.30;99.90;;;;;;5109012;27;19927;-73
2023/12/21 02:15:38;;;;;;;15.73;3.47;;;9.40;99.90;;;;;;5092346;27;20035;-73
2023/12/21 02:18:06;;;;;;;17.63;4.03;;;9.60;99.90;;;;;;5114468;27;20036;-74
2023/12/21 02:20:32;;;;;;;16.15;3.63;;;9.30;99.90;;;;;;5112698;27;20035;-73
2023/12/21 02:23:00;;;;;;;10.52;2.90;;;9.60;99.90;;;;;;5116290;27;20050;-73
2023/12/21 02:25:27;;;;;;;11.95;2.85;;;9.50;99.90;;;;;;5107178;27;20187;-73
2023/12/21 02:27:53;;;;;;;16.95;3.60;;;9.60;99.90;;;;;;5112485;27;20051;-73
2023/12/21 02:30:18;;;;;;;13.63;2.95;;;9.60;99.90;;;;;;5099007;28;20117;-73
2023/12/21 02:32:44;;;;;;;12.98;3.70;;;9.30;99.90;;;;;;5118763;27;20035;-73
2023/12/21 02:35:10;;;;;;;14.43;3.20;;;9.50;99.90;;;;;;5100164;27;20035;-73
2023/12/21 02:37:35;;;;;;;16.13;3.40;;;9.40;99.90;;;;;;5102706;27;20126;-73
2023/12/21 02:40:01;;;;;;;12.93;3.08;;;9.50;99.90;;;;;;5116588;27;20042;-72
2023/12/21 02:42:27;;;;;;;14.75;3.10;;;9.60;99.90;;;;;;5111433;27;20058;-73
2023/12/21 02:44:52;;;;;;;14.20;3.30;;;9.30;99.90;;;;;;5079018;28;20051;-73
2023/12/21 02:47:18;;;;;;;17.80;3.92;;;9.30;99.90;;;;;;5113287;27;20105;-72
2023/12/21 02:49:44;;;;;;;15.80;3.20;;;9.50;99.90;;;;;;5092208;28;20090;-73
2023/12/21 02:52:09;;;;;;;14.00;2.95;;;9.30;99.90;;;;;;5109016;28;20024;-73
2023/12/21 02:54:35;;;;;;;14.20;3.78;;;9.70;99.90;;;;;;5107631;27;20027;-76
2023/12/21 02:57:01;;;;;;;14.65;2.80;;;9.70;99.90;;;;;;5078143;28;20097;-76
2023/12/21 02:59:26;;;;;;;11.93;3.03;;;9.60;99.90;;;;;;5093077;28;20065;-76
2023/12/21 03:01:52;;;;;;;12.27;2.88;;;9.30;99.90;;;;;;5102593;27;20050;-76
2023/12/21 03:04:18;;;;;;;10.55;2.72;;;9.60;99.90;;;;;;5096472;27;20043;-75
2023/12/21 03:06:44;;;;;;;12.95;2.90;;;9.50;99.90;;;;;;5122221;27;20043;-75
2023/12/21 03:09:10;;;;;;;10.85;3.10;;;9.60;99.90;;;;;;5116432;27;20039;-72
2023/12/21 03:11:36;;;;;;;14.10;3.13;;;9.60;99.90;;;;;;5117538;27;20035;-73
2023/12/21 03:14:02;;;;;;;16.45;3.22;;;9.40;99.90;;;;;;5133570;27;20535;-73
2023/12/21 03:16:28;;;;;;;;;;;9.70;99.90;;;;;;5108825;27;20043;-76
2023/12/21 03:18:54;;;;;;;16.13;2.80;;;9.30;99.90;;;;;;5110601;27;20394;-75
2023/12/21 03:21:19;;;;;;;10.07;2.88;;;9.40;99.90;;;;;;5110349;27;21447;-73
2023/12/21 03:23:45;;;;;;;12.13;3.00;;;9.40;99.90;;;;;;5111308;28;20523;-72
2023/12/21 03:26:11;;;;;;;12.45;2.60;;;9.50;99.90;;;;;;5111353;27;20046;-72
2023/12/21 03:28:38;;;;;;;9.73;2.80;;;9.60;99.90;;;;;;5117929;27;20441;-73
2023/12/21 03:31:07;;;;;;;12.57;2.85;;;9.60;99.90;;;;;;5110667;28;20490;-73
2023/12/21 03:33:32;;;;;;;10.75;3.17;;;9.30;99.90;;;;;;5111103;27;20039;-72
2023/12/21 03:35:58;;;;;;;10.50;2.53;;;9.30;99.90;;;;;;5115688;27;20043;-72
2023/12/21 03:38:24;;;;;;;12.93;2.92;;;9.60;99.90;;;;;;5114460;28;20046;-73
2023/12/21 03:40:49;;;;;;;20.52;3.70;;;9.60;99.90;;;;;;5111475;28;20536;-73
2023/12/21 03:43:15;;;;;;;13.45;3.30;;;9.70;99.90;;;;;;5130609;27;20039;-73
2023/12/21 03:45:41;;;;;;;17.05;3.72;;;9.50;99.90;;;;;;5114799;28;20180;-74
2023/12/21 03:48:10;;;;;;;10.27;3.08;;;9.40;99.90;;;;;;5108059;28;20067;-73
2023/12/21 03:50:36;;;;;;;13.23;3.10;;;9.50;99.90;;;;;;5074158;28;20254;-73
2023/12/21 03:53:03;;;;;;;13.95;3.10;;;9.70;99.90;;;;;;5114078;28;20039;-73
2023/12/21 03:55:29;;;;;;;14.10;3.20;;;9.70;99.90;;;;;;5092307;28;20040;-74
2023/12/21 03:57:56;;;;;;;13.80;2.97;;;9.60;99.90;;;;;;5141322;27;20047;-73
2023/12/21 04:00:23;;;;;;;16.52;3.45;;;9.80;99.90;;;;;;5123534;27;20044;-73
2023/12/21 04:02:48;;;;;;;;;;;9.50;99.90;;;;;;5124134;27;20043;-73
2023/12/21 04:05:14;;;;;;;10.48;2.90;;;9.40;99.90;;;;;;5102574;27;19956;-73
2023/12/21 04:07:40;;;;;;;17.38;3.08;;;9.70;99.90;;;;;;5123589;27;20035;-73
2023/12/21 04:10:06;;;;;;;15.82;3.10;;;9.40;99.90;;;;;;5115308;27;20035;-73
2023/12/21 04:12:32;;;;;;;12.65;3.30;;;9.30;99.90;;;;;;5119977;27;20579;-73
2023/12/21 04:14:57;;;;;;;10.30;3.00;;;9.60;99.90;;;;;;5135469;27;20226;-73
2023/12/21 04:17:23;;;;;;;14.77;2.88;;;9.60;99.90;;;;;;5121593;27;20040;-75
2023/12/21 04:19:49;;;;;;;16.10;3.40;;;9.40;99.90;;;;;;5129413;27;20049;-75
2023/12/21 04:22:14;;;;;;;14.02;2.92;;;9.40;99.90;;;;;;5128872;27;20047;-76
2023/12/21 04:24:44;;;;;;;12.23;2.65;;;9.60;99.90;;;;;;5122838;27;20498;-75
2023/12/21 04:27:10;;;;;;;12.25;3.03;;;9.20;99.90;;;;;;5114389;27;20501;-76
2023/12/21 04:29:39;;;;;;;12.55;2.92;;;9.20;99.90;;;;;;5119834;27;20113;-75
2023/12/21 04:32:06;;;;;;;10.82;2.80;;;9.20;99.90;;;;;;5127327;27;20028;-76
2023/12/21 04:34:32;;;;;;;14.30;3.03;;;9.30;99.90;;;;;;5127833;27;20038;-76
2023/12/21 04:36:57;;;;;;;9.73;2.67;;;9.40;99.90;;;;;;5122377;27;20674;-75
2023/12/21 04:39:23;;;;;;;12.25;2.50;;;9.60;99.90;;;;;;5116115;27;20040;-75
2023/12/21 04:41:49;;;;;;;17.10;2.90;;;9.30;99.90;;;;;;5114031;27;20524;-76
2023/12/21 04:44:15;;;;;;;13.20;2.80;;;9.50;99.90;;;;;;5117488;27;20055;-75
2023/12/21 04:46:47;;;;;;;10.75;2.65;;;9.60;99.90;;;;;;5120536;27;20044;-75
2023/12/21 04:49:14;;;;;;;12.57;2.40;;;9.10;99.90;;;;;;5122315;27;20049;-72
2023/12/21 04:51:39;;;;;;;;;;;9.50;99.90;;;;;;5119422;27;20046;-75
2023/12/21 04:54:06;;;;;;;10.95;2.45;;;9.50;99.90;;;;;;5104033;27;19915;-75
2023/12/21 04:56:31;;;;;;;;;;;9.60;99.90;;;;;;5123777;27;20488;-75
2023/12/21 04:58:57;;;;;;;9.45;2.00;;;9.50;99.90;;;;;;5118252;27;19926;-75
2023/12/21 05:01:23;;;;;;;8.95;2.60;;;9.10;99.90;;;;;;5117508;27;20039;-75
2023/12/21 05:03:48;;;;;;;10.85;2.30;;;9.50;99.90;;;;;;5122826;27;20047;-76
2023/12/21 05:06:14;;;;;;;13.38;3.10;;;9.60;99.90;;;;;;5125391;27;20122;-76
2023/12/21 05:08:40;;;;;;;8.07;2.40;;;9.50;99.90;;;;;;5117670;27;20054;-76
2023/12/21 05:11:05;;;;;;;10.27;2.75;;;9.30;99.90;;;;;;5117061;27;20082;-76
2023/12/21 05:13:31;;;;;;;13.43;2.75;;;9.20;99.90;;;;;;5121151;27;20093;-76
2023/12/21 05:15:57;;;;;;;15.57;3.67;;;9.20;99.90;;;;;;5127207;27;20047;-76
2023/12/21 05:18:23;;;;;;;13.43;2.75;;;9.60;99.90;;;;;;5109241;27;20035;-76
2023/12/21 05:20:49;;;;;;;15.80;2.95;;;9.30;99.90;;;;;;5122551;27;20058;-76
2023/12/21 05:23:15;;;;;;;13.18;2.63;;;9.60;99.90;;;;;;5121210;27;20059;-76
2023/12/21 05:25:40;;;;;;;14.52;3.03;;;9.30;99.90;;;;;;5112404;27;20092;-76
2023/12/21 05:28:07;;;;;;;14.18;2.67;;;9.60;99.90;;;;;;5127480;27;20047;-76
2023/12/21 05:30:33;;;;;;;13.20;2.58;;;9.50;99.90;;;;;;5116464;27;20123;-76
2023/12/21 05:32:59;;;;;;;14.07;3.20;;;9.20;99.90;;;;;;5092718;27;20130;-76
2023/12/21 05:35:25;;;;;;;13.05;2.50;;;9.30;99.90;;;;;;5120969;27;20042;-76
2023/12/21 05:37:50;;;;;;;14.38;2.88;;;9.60;99.90;;;;;;5127325;27;20501;-75
2023/12/21 05:40:16;;;;;;;13.23;3.13;;;9.30;99.90;;;;;;5104641;27;20036;-76
2023/12/21 05:42:42;;;;;;;13.43;2.97;;;9.20;99.90;;;;;;5127946;27;20035;-75
2023/12/21 05:45:08;;;;;;;14.57;2.70;;;9.60;99.90;;;;;;5117426;27;20051;-76
2023/12/21 05:47:33;;;;;;;15.50;2.30;;;9.60;99.90;;;;;;5120782;27;20044;-75
2023/12/21 05:49:59;;;;;;;10.77;2.30;;;9.30;99.90;;;;;;5119529;27;20039;-75
2023/12/21 05:52:25;;;;;;;12.30;2.38;;;9.40;99.90;;;;;;5123062;27;20047;-75
2023/12/21 05:54:51;;;;;;;13.90;2.25;;;9.40;99.90;;;;;;5115905;27;20035;-76
2023/12/21 05:57:16;;;;;;;16.20;2.88;;;9.60;99.90;;;;;;5121676;27;20043;-75
2023/12/21 05:59:43;;;;;;;16.27;2.85;;;9.30;99.90;;;;;;5126056;27;20047;-75
2023/12/21 06:02:09;;;;;;;13.38;2.50;;;9.30;99.90;;;;;;5116286;27;20093;-75
2023/12/21 06:04:35;;;;;;;11.70;2.28;;;9.40;99.90;;;;;;5125731;27;20054;-75
2023/12/21 06:07:01;;;;;;;9.48;2.17;;;9.50;99.90;;;;;;5119754;27;20036;-77
2023/12/21 06:09:27;;;;;;;15.85;3.38;;;9.40;99.90;;;;;;5119619;27;20820;-75
2023/12/21 06:11:52;;;;;;;14.63;2.88;;;9.30;99.90;;;;;;5122516;27;20402;-75
2023/12/21 06:14:18;;;;;;;17.98;2.95;;;9.40;99.90;;;;;;5121603;27;20126;-76
2023/12/21 06:16:44;;;;;;;14.57;3.15;;;9.70;99.90;;;;;;5115005;27;20067;-76
2023/12/21 06:19:10;;;;;;;14.85;2.50;;;9.40;99.90;;;;;;5112762;27;20032;-76
2023/12/21 06:21:39;;;;;;;18.65;3.25;;;9.30;99.90;;;;;;5119265;27;20043;-76
2023/12/21 06:24:06;;;;;;;12.75;2.92;;;9.70;99.90;;;;;;5103911;28;20093;-76
2023/12/21 06:26:39;;;;;;;13.73;2.60;;;9.40;99.90;;;;;;5121961;27;20035;-76
2023/12/21 06:29:04;;;;;;;13.68;3.30;;;9.60;99.90;;;;;;5117174;27;20043;-76
2023/12/21 06:31:30;;;;;;;13.20;3.08;;;9.50;99.90;;;;;;5111809;27;20444;-76
2023/12/21 06:33:56;;;;;;;10.70;2.67;;;9.60;99.90;;;;;;5113710;27;20047;-75
2023/12/21 06:36:23;;;;;;;15.27;2.67;;;9.70;99.90;;;;;;5119325;27;20452;-75
2023/12/21 06:38:49;;;;;;;13.65;2.50;;;9.70;99.90;;;;;;5122387;27;20043;-76
2023/12/21 06:41:14;;;;;;;8.88;2.35;;;9.80;99.90;;;;;;5124478;27;20035;-75
2023/12/21 06:43:40;;;;;;;13.95;2.35;;;9.70;99.90;;;;;;5116751;27;20032;-76
2023/12/21 06:46:15;;;;;;;11.75;2.30;;;9.60;99.90;;;;;;5115071;27;20072;-75
2023/12/21 06:48:41;;;;;;;9.52;2.00;;;9.70;99.90;;;;;;5123613;27;20112;-76
2023/12/21 06:51:08;;;;;;;9.80;2.00;;;9.70;99.90;;;;;;5125380;27;20463;-75
2023/12/21 06:53:34;;;;;;;9.95;2.13;;;9.60;99.90;;;;;;5105761;27;20368;-75
2023/12/21 06:56:00;;;;;;;8.52;1.92;;;9.70;99.90;;;;;;5119351;27;20045;-76
2023/12/21 06:58:27;;;;;;;6.32;1.70;;;9.80;99.90;;;;;;5127142;27;20047;-74
2023/12/21 07:00:53;;;;;;;9.98;2.30;;;9.50;99.90;;;;;;5119586;27;20047;-75
2023/12/21 07:03:19;;;;;;;9.23;3.00;;;9.70;99.90;;;;;;5117811;27;20035;-74
2023/12/21 07:05:45;;;;;;;5.57;1.65;;;9.50;99.90;;;;;;5128605;27;20035;-74
2023/12/21 07:08:11;;;;;;;5.13;1.58;;;9.40;99.90;;;;;;5128254;27;20045;-74
2023/12/21 07:10:36;;;;;;;6.82;1.65;;;9.70;99.90;;;;;;5112730;27;20054;-74
2023/12/21 07:13:02;;;;;;;10.60;2.30;;;9.40;99.90;;;;;;5119445;27;20038;-74
2023/12/21 07:15:28;;;;;;;7.00;1.70;;;9.70;99.90;;;;;;5117214;27;20074;-74
2023/12/21 07:17:55;;;;;;;4.97;1.40;;;9.40;99.90;;;;;;5104369;27;20052;-74
2023/12/21 07:20:24;;;;;;;5.45;1.40;;;9.30;99.90;;;;;;5111499;27;20032;-75
2023/12/21 07:22:50;;;;;;;8.40;1.65;;;9.50;99.90;;;;;;5113120;28;20512;-74
2023/12/21 07:25:16;;;;;;;7.30;1.55;;;9.40;99.90;;;;;;5129018;27;20093;-74
2023/12/21 07:27:42;;;;;;;5.65;1.90;;;9.70;99.90;;;;;;5118476;27;20050;-74
2023/12/21 07:30:08;;;;;;;4.25;1.52;;;9.70;99.90;;;;;;5112228;27;20047;-75
2023/12/21 07:32:34;;;;;;;7.03;1.40;;;9.40;99.90;;;;;;5102431;27;20479;-74
2023/12/21 07:35:00;;;;;;;5.22;1.88;;;9.70;99.90;;;;;;5079834;28;20044;-74
2023/12/21 07:37:25;;;;;;;3.85;1.40;;;9.60;99.90;;;;;;5113029;28;20432;-74
2023/12/21 07:39:51;;;;;;;5.55;1.42;;;9.40;99.90;;;;;;5113659;27;20054;-75
2023/12/21 07:42:17;;;;;;;7.72;1.65;;;9.60;99.90;;;;;;5125203;28;20039;-75
2023/12/21 07:44:44;;;;;;;6.20;1.40;;;9.60;99.90;;;;;;5113509;28;20069;-75
2023/12/21 07:47:10;;;;;;;7.32;1.80;;;9.60;99.90;;;;;;5116153;28;20091;-74
2023/12/21 07:49:35;;;;;;;6.18;1.48;;;9.70;99.90;;;;;;5118623;28;20059;-74
2023/12/21 07:52:01;;;;;;;7.25;1.60;;;9.80;99.90;;;;;;5114183;28;20035;-74
2023/12/21 07:54:27;;;;;;;8.70;1.63;;;9.60;99.90;;;;;;5111450;28;20039;-74
2023/12/21 07:56:52;;;;;;;6.60;1.50;;;9.70;99.90;;;;;;5113918;28;20071;-75
2023/12/21 07:59:19;;;;;;;6.35;1.40;;;9.70;99.90;;;;;;5122333;28;20482;-75
2023/12/21 08:01:46;;;;;;;8.77;1.73;;;9.60;99.90;;;;;;5127638;28;20043;-73
2023/12/21 08:04:12;;;;;;;6.63;1.90;;;9.90;99.90;;;;;;5116168;28;20051;-74
2023/12/21 08:06:38;;;;;;;8.65;1.92;;;9.60;99.90;;;;;;5105820;28;20040;-75
2023/12/21 08:09:03;;;;;;;7.60;1.52;;;9.40;99.90;;;;;;5109489;28;20032;-74
2023/12/21 08:11:29;;;;;;;9.95;1.60;;;9.50;99.90;;;;;;5108059;28;20401;-74
2023/12/21 08:13:55;;;;;;;7.70;1.70;;;9.70;99.90;;;;;;5109635;28;20052;-75
2023/12/21 08:16:20;;;;;;;7.15;1.63;;;9.50;99.90;;;;;;5107214;28;20478;-75
2023/12/21 08:18:46;;;;;;;10.95;2.70;;;9.50;99.90;;;;;;5113398;28;20497;-75
2023/12/21 08:21:12;;;;;;;10.93;2.05;;;9.80;99.90;;;;;;5110259;28;20928;-69
2023/12/21 08:23:39;;;;;;;12.13;2.55;;;9.80;99.90;;;;;;5111467;28;20035;-68
2023/12/21 08:26:08;;;;;;;12.15;2.55;;;9.40;99.90;;;;;;5110284;28;20063;-69
2023/12/21 08:28:33;;;;;;;14.18;2.90;;;9.90;99.90;;;;;;5087609;28;20036;-70
2023/12/21 08:31:00;;;;;;;14.40;3.00;;;9.90;99.90;;;;;;5103556;28;20042;-70
2023/12/21 08:33:25;;;;;;;19.17;3.17;;;9.50;99.90;;;;;;5111633;28;20364;-76
2023/12/21 08:35:52;;;;;;;16.75;3.40;;;9.90;99.90;;;;;;5105202;28;20047;-70
2023/12/21 08:38:17;;;;;;;;;;;9.70;99.90;;;;;;5116918;28;20043;-70
2023/12/21 08:40:43;;;;;;;21.70;3.00;;;10.00;99.90;;;;;;5088813;28;19945;-70
2023/12/21 08:43:09;;;;;;;24.75;4.13;;;9.90;99.90;;;;;;5112129;28;20056;-69
2023/12/21 08:45:35;;;;;;;18.45;3.90;;;9.70;99.90;;;;;;5111650;28;20591;-69
2023/12/21 08:48:00;;;;;;;20.85;3.53;;;9.70;99.90;;;;;;5127326;27;20051;-69
2023/12/21 08:50:26;;;;;;;17.17;3.45;;;9.80;99.90;;;;;;5098617;28;20051;-69
2023/12/21 08:52:52;;;;;;;19.17;3.50;;;9.80;99.90;;;;;;5122268;27;20060;-69
2023/12/21 08:55:17;;;;;;;19.15;3.42;;;9.80;99.90;;;;;;5122186;27;20172;-75
2023/12/21 08:57:43;;;;;;;16.70;2.88;;;10.20;99.90;;;;;;5117013;27;20039;-75
2023/12/21 09:00:13;;;;;;;19.35;3.55;;;10.10;99.90;;;;;;5112959;27;20126;-76
2023/12/21 09:02:39;;;;;;;20.77;4.32;;;9.80;99.90;;;;;;5112736;27;20043;-69
2023/12/21 09:05:06;;;;;;;15.88;2.20;;;10.30;99.90;;;;;;5112177;27;20627;-75
2023/12/21 09:07:32;;;;;;;17.33;2.65;;;10.20;99.90;;;;;;5111589;27;20059;-75
2023/12/21 09:09:58;;;;;;;;;;;10.10;99.90;;;;;;5122537;27;20487;-76
2023/12/21 09:12:24;;;;;;;15.40;2.95;;;9.90;99.90;;;;;;5118198;27;19922;-75
2023/12/21 09:14:49;;;;;;;18.38;3.53;;;10.20;99.90;;;;;;5112951;28;20044;-76
2023/12/21 09:17:15;;;;;;;19.88;4.57;;;10.20;99.90;;;;;;5087925;28;20044;-69
2023/12/21 09:19:43;;;;;;;23.25;3.22;;;10.30;99.90;;;;;;5103431;27;20403;-70
2023/12/21 09:22:09;;;;;;;21.55;4.15;;;10.30;99.90;;;;;;5108260;27;20051;-70
2023/12/21 09:24:35;;;;;;;22.38;4.75;;;10.30;99.90;;;;;;5133056;27;20471;-69
2023/12/21 09:27:00;;;;;;;17.85;2.92;;;10.30;99.90;;;;;;5110826;28;20104;-69
2023/12/21 09:29:26;;;;;;;19.95;3.28;;;10.30;99.90;;;;;;5111219;28;20027;-70
2023/12/21 09:31:52;;;;;;;16.08;3.30;;;10.30;99.90;;;;;;5135604;27;20845;-69
2023/12/21 09:34:18;;;;;;;13.27;3.22;;;10.20;99.90;;;;;;5099074;28;20101;-69
2023/12/21 09:36:43;;;;;;;20.85;3.25;;;10.40;99.90;;;;;;5103964;27;20054;-68
2023/12/21 09:39:12;;;;;;;20.17;3.40;;;10.50;99.90;;;;;;5111868;27;20047;-69
2023/12/21 09:41:40;;;;;;;12.80;2.42;;;10.40;99.90;;;;;;5118805;27;20039;-70
2023/12/21 09:44:06;;;;;;;17.83;3.33;;;10.20;99.90;;;;;;5085831;28;20051;-70
2023/12/21 09:46:38;;;;;;;17.15;2.83;;;10.20;99.90;;;;;;5120359;27;20040;-70
2023/12/21 09:49:06;;;;;;;15.57;2.70;;;10.30;99.90;;;;;;5107471;28;20104;-70
2023/12/21 09:51:34;;;;;;;20.92;2.90;;;10.10;99.90;;;;;;5132585;27;20424;-70
2023/12/21 09:54:01;;;;;;;17.35;3.38;;;10.40;99.90;;;;;;5108274;28;20407;-69
2023/12/21 09:56:28;;;;;;;16.15;3.20;;;10.30;99.90;;;;;;5093766;28;20043;-69
2023/12/21 09:58:56;;;;;;;12.00;2.53;;;10.30;99.90;;;;;;5076191;28;20054;-70
2023/12/21 10:01:22;;;;;;;10.50;2.63;;;10.20;99.90;;;;;;5140751;27;20034;-73
2023/12/21 10:03:48;;;;;;;;;;;10.20;99.90;;;;;;5131757;27;20486;-69
2023/12/21 10:06:15;;;;;;;15.15;2.50;;;10.20;99.90;;;;;;5117317;27;19945;-69
2023/12/21 10:08:41;;;;;;;17.23;2.97;;;10.20;99.90;;;;;;5103892;27;20101;-73
2023/12/21 10:11:08;;;;;;;16.65;2.88;;;10.30;99.90;;;;;;5091367;28;20129;-69
2023/12/21 10:13:37;;;;;;;19.15;3.17;;;10.40;99.90;;;;;;5092109;28;20047;-71
2023/12/21 10:16:03;;;;;;;14.60;3.53;;;10.60;99.90;;;;;;5103085;28;20049;-71
2023/12/21 10:18:32;;;;;;;12.43;2.40;;;10.40;99.90;;;;;;5110764;27;20035;-80
2023/12/21 10:20:59;;;;;;;19.80;2.80;;;10.50;99.90;;;;;;5093836;28;20044;-72
2023/12/21 10:23:25;;;;;;;17.85;3.03;;;10.50;99.90;;;;;;5109577;27;20031;-70
2023/12/21 10:25:53;;;;;;;14.70;3.03;;;10.50;99.90;;;;;;5091262;28;20035;-72
2023/12/21 10:28:23;;;;;;;16.50;3.33;;;10.50;99.90;;;;;;5095283;27;20074;-76
2023/12/21 10:30:56;;;;;;;17.52;3.22;;;10.60;99.90;;;;;;5099549;28;20081;-73
2023/12/21 10:33:25;;;;;;;17.50;2.70;;;10.60;99.90;;;;;;5121182;27;20494;-75
2023/12/21 10:35:52;;;;;;;14.30;3.33;;;10.50;99.90;;;;;;5140750;27;20482;-75
2023/12/21 10:38:19;;;;;;;16.48;3.53;;;10.60;99.90;;;;;;5117051;27;20114;-75
2023/12/21 10:40:46;;;;;;;17.77;3.20;;;10.50;99.90;;;;;;5118279;27;20035;-75
2023/12/21 10:43:14;;;;;;;19.85;3.47;;;10.60;99.90;;;;;;5134913;27;20085;-77
2023/12/21 10:45:44;;;;;;;18.48;3.83;;;10.60;99.90;;;;;;5114432;27;20056;-76
2023/12/21 10:48:13;;;;;;;19.23;3.80;;;10.60;99.90;;;;;;5136932;27;20411;-76
2023/12/21 10:50:39;;;;;;;12.93;2.97;;;10.60;99.90;;;;;;5109063;28;20051;-76
2023/12/21 10:53:05;;;;;;;14.73;2.65;;;10.60;99.90;;;;;;5123019;27;20039;-76
2023/12/21 10:55:32;;;;;;;15.77;2.88;;;10.70;99.90;;;;;;5105701;28;20085;-75
2023/12/21 10:58:00;;;;;;;16.73;2.90;;;10.60;99.90;;;;;;5139803;27;20047;-76
2023/12/21 11:00:26;;;;;;;17.45;2.97;;;10.60;99.90;;;;;;5107228;27;20113;-76
2023/12/21 11:02:52;;;;;;;17.77;3.13;;;10.60;99.90;;;;;;5101034;28;20043;-75
2023/12/21 11:05:21;;;;;;;19.50;2.95;;;10.60;99.90;;;;;;5108997;27;20092;-76
2023/12/21 11:07:50;;;;;;;20.30;3.53;;;10.60;99.90;;;;;;5131526;27;20479;-75
2023/12/21 11:10:17;;;;;;;17.08;2.92;;;10.50;99.90;;;;;;5103675;27;20085;-75
2023/12/21 11:12:43;;;;;;;20.50;3.42;;;10.50;99.90;;;;;;5130858;27;20501;-75
2023/12/21 11:15:11;;;;;;;13.00;3.90;;;10.50;99.90;;;;;;5093538;28;20043;-75
2023/12/21 11:17:39;;;;;;;19.38;3.80;;;10.50;99.90;;;;;;5072702;28;20501;-76
2023/12/21 11:20:07;;;;;;;18.25;3.08;;;10.60;99.90;;;;;;5106625;27;20402;-76
2023/12/21 11:22:38;;;;;;;17.40;3.35;;;10.80;99.90;;;;;;5109313;28;20031;-76
2023/12/21 11:25:04;;;;;;;23.33;3.38;;;10.90;99.90;;;;;;5105696;28;20484;-78
2023/12/21 11:27:30;;;;;;;16.25;3.28;;;11.00;99.90;;;;;;5136842;27;20490;-75
2023/12/21 11:30:11;;;;;;;17.85;3.08;;;11.30;99.90;;;;;;5112159;27;20119;-78
2023/12/21 11:32:41;;;;;;;24.52;3.60;;;11.30;99.90;;;;;;5111678;28;20394;-75
2023/12/21 11:35:20;;;;;;;21.08;3.83;;;11.40;99.90;;;;;;5110435;28;20039;-76
2023/12/21 11:37:51;;;;;;;20.65;4.70;;;11.50;99.90;;;;;;5102514;28;20142;-76
2023/12/21 11:40:19;;;;;;;23.75;7.72;;;11.40;99.90;;;;;;5127515;27;20115;-77
2023/12/21 11:42:47;;;;;;;26.27;7.22;;;11.40;99.90;;;;;;5113672;28;20032;-77
2023/12/21 11:45:26;;;;;;;25.73;4.35;;;11.40;99.90;;;;;;5110122;28;20060;-76
2023/12/21 11:47:56;;;;;;;27.42;5.75;;;11.40;99.90;;;;;;5106864;28;20594;-70
2023/12/21 11:50:26;;;;;;;24.35;4.43;;;11.40;99.90;;;;;;5105295;28;20509;-70
2023/12/21 11:53:05;;;;;;;19.77;3.88;;;11.50;99.90;;;;;;5141941;27;20043;-70
2023/12/21 11:55:36;;;;;;;24.90;4.50;;;11.50;99.90;;;;;;5113271;28;20050;-71
2023/12/21 11:58:19;;;;;;;21.75;3.65;;;11.50;99.90;;;;;;5121326;28;20156;-71
2023/12/21 12:00:55;;;;;;;20.05;4.07;;;11.50;99.90;;;;;;5107842;28;20047;-71
2023/12/21 12:03:23;;;;;;;20.67;3.67;;;11.50;99.90;;;;;;5112359;28;20079;-71
2023/12/21 12:05:52;;;;;;;23.85;4.25;;;11.50;99.90;;;;;;5092424;28;20067;-71
2023/12/21 12:08:24;;;;;;;22.70;4.47;;;11.60;99.90;;;;;;5136265;27;20037;-71
2023/12/21 12:10:54;;;;;;;18.92;3.60;;;11.50;99.90;;;;;;5083437;28;20475;-71
2023/12/21 12:13:23;;;;;;;23.15;4.30;;;11.60;99.90;;;;;;5142562;27;20035;-72
2023/12/21 12:15:53;;;;;;;22.08;4.35;;;11.60;99.90;;;;;;5104284;28;20137;-71
2023/12/21 12:18:22;;;;;;;22.95;4.13;;;11.60;99.90;;;;;;5102693;28;20096;-78
2023/12/21 12:20:50;;;;;;;23.85;4.43;;;11.50;99.90;;;;;;5068518;28;20471;-79
2023/12/21 12:23:17;;;;;;;22.55;4.32;;;11.60;99.90;;;;;;5092950;27;20122;-79
2023/12/21 12:25:43;;;;;;;19.33;3.63;;;11.60;99.90;;;;;;5107376;27;20042;-78
2023/12/21 12:28:09;;;;;;;23.88;4.13;;;11.50;99.90;;;;;;5100813;27;20055;-77
2023/12/21 12:30:36;;;;;;;26.17;4.30;;;11.50;99.90;;;;;;5105218;27;20139;-78
2023/12/21 12:33:03;;;;;;;21.33;4.00;;;11.50;99.90;;;;;;5092459;28;20039;-79
2023/12/21 12:35:34;;;;;;;29.45;4.78;;;11.50;99.90;;;;;;5130838;27;20039;-78
2023/12/21 12:38:00;;;;;;;20.85;4.15;;;11.40;99.90;;;;;;5115044;27;20043;-78
2023/12/21 12:40:26;;;;;;;22.55;4.00;;;11.50;99.90;;;;;;5110807;27;20039;-79
2023/12/21 12:42:52;;;;;;;;;;;11.40;99.90;;;;;;5110568;27;20554;-79
2023/12/21 12:45:18;;;;;;;25.65;4.90;;;11.40;99.90;;;;;;5117131;27;19920;-79